sensor_id;sensor_type;location;lat;lon;timestamp;temperature;humidity
66752;SHT31;53663;42.676;23.238;2023-03-30T00:01:23;5.23;50.01
66752;SHT31;53663;42.676;23.238;2023-03-30T00:03:49;5.16;49.71
66752;SHT31;53663;42.676;23.238;2023-03-30T00:06:15;5.08;49.98
66752;SHT31;53663;42.676;23.238;2023-03-30T00:08:49;5.13;50.32
66752;SHT31;53663;42.676;23.238;2023-03-30T00:11:18;5.15;50.14
66752;SHT31;53663;42.676;23.238;2023-03-30T00:13:44;5.10;50.50
66752;SHT31;53663;42.676;23.238;2023-03-30T00:16:11;5.12;50.61
66752;SHT31;53663;42.676;23.238;2023-03-30T00:18:37;5.16;50.01
66752;SHT31;53663;42.676;23.238;2023-03-30T00:21:04;5.16;50.75
66752;SHT31;53663;42.676;23.238;2023-03-30T00:23:30;5.09;50.86
66752;SHT31;53663;42.676;23.238;2023-03-30T00:25:56;5.06;51.02
66752;SHT31;53663;42.676;23.238;2023-03-30T00:28:22;5.02;51.87
66752;SHT31;53663;42.676;23.238;2023-03-30T00:30:48;4.93;52.50
66752;SHT31;53663;42.676;23.238;2023-03-30T00:33:14;4.89;53.17
66752;SHT31;53663;42.676;23.238;2023-03-30T00:35:40;4.83;53.53
66752;SHT31;53663;42.676;23.238;2023-03-30T00:38:06;4.73;54.07
66752;SHT31;53663;42.676;23.238;2023-03-30T00:40:32;4.78;54.45
66752;SHT31;53663;42.676;23.238;2023-03-30T00:42:59;4.82;54.40
66752;SHT31;53663;42.676;23.238;2023-03-30T00:45:35;4.81;54.71
66752;SHT31;53663;42.676;23.238;2023-03-30T00:48:15;4.68;55.25
66752;SHT31;53663;42.676;23.238;2023-03-30T00:50:48;4.67;55.33
66752;SHT31;53663;42.676;23.238;2023-03-30T00:55:45;4.67;56.52
66752;SHT31;53663;42.676;23.238;2023-03-30T00:58:13;4.55;56.71
66752;SHT31;53663;42.676;23.238;2023-03-30T01:00:40;4.50;57.33
66752;SHT31;53663;42.676;23.238;2023-03-30T01:03:16;4.45;57.51
66752;SHT31;53663;42.676;23.238;2023-03-30T01:05:43;4.40;58.42
66752;SHT31;53663;42.676;23.238;2023-03-30T01:08:10;4.17;59.84
66752;SHT31;53663;42.676;23.238;2023-03-30T01:10:39;4.13;60.29
66752;SHT31;53663;42.676;23.238;2023-03-30T01:13:05;4.13;60.76
66752;SHT31;53663;42.676;23.238;2023-03-30T01:15:34;4.11;60.67
66752;SHT31;53663;42.676;23.238;2023-03-30T01:18:20;3.87;61.56
66752;SHT31;53663;42.676;23.238;2023-03-30T01:24:07;3.99;62.45
66752;SHT31;53663;42.676;23.238;2023-03-30T01:29:22;3.89;63.14
66752;SHT31;53663;42.676;23.238;2023-03-30T01:40:37;3.89;62.92
66752;SHT31;53663;42.676;23.238;2023-03-30T01:43:17;3.92;62.51
66752;SHT31;53663;42.676;23.238;2023-03-30T01:46:01;3.90;62.55
66752;SHT31;53663;42.676;23.238;2023-03-30T01:48:33;3.96;62.00
66752;SHT31;53663;42.676;23.238;2023-03-30T01:51:08;3.97;61.87
66752;SHT31;53663;42.676;23.238;2023-03-30T01:58:53;3.93;61.53
66752;SHT31;53663;42.676;23.238;2023-03-30T02:01:21;3.96;61.39
66752;SHT31;53663;42.676;23.238;2023-03-30T02:03:50;3.94;61.33
66752;SHT31;53663;42.676;23.238;2023-03-30T02:06:54;4.00;60.83
66752;SHT31;53663;42.676;23.238;2023-03-30T02:09:15;4.17;60.28
66752;SHT31;53663;42.676;23.238;2023-03-30T02:11:51;4.20;59.91
66752;SHT31;53663;42.676;23.238;2023-03-30T02:14:24;4.20;59.93
66752;SHT31;53663;42.676;23.238;2023-03-30T02:17:20;4.30;59.59
66752;SHT31;53663;42.676;23.238;2023-03-30T02:19:47;4.30;59.75
66752;SHT31;53663;42.676;23.238;2023-03-30T02:22:16;4.27;59.89
66752;SHT31;53663;42.676;23.238;2023-03-30T02:24:43;4.25;60.40
66752;SHT31;53663;42.676;23.238;2023-03-30T02:27:10;4.23;60.80
66752;SHT31;53663;42.676;23.238;2023-03-30T02:29:39;4.23;61.17
66752;SHT31;53663;42.676;23.238;2023-03-30T02:32:15;4.21;61.56
66752;SHT31;53663;42.676;23.238;2023-03-30T02:35:23;4.23;62.06
66752;SHT31;53663;42.676;23.238;2023-03-30T02:38:13;4.16;62.57
66752;SHT31;53663;42.676;23.238;2023-03-30T02:41:06;4.24;63.03
66752;SHT31;53663;42.676;23.238;2023-03-30T02:46:36;4.29;63.45
66752;SHT31;53663;42.676;23.238;2023-03-30T02:49:16;4.29;63.72
66752;SHT31;53663;42.676;23.238;2023-03-30T02:52:11;4.30;63.87
66752;SHT31;53663;42.676;23.238;2023-03-30T02:54:54;4.31;64.03
66752;SHT31;53663;42.676;23.238;2023-03-30T02:58:16;4.31;64.13
66752;SHT31;53663;42.676;23.238;2023-03-30T03:01:27;4.30;64.41
66752;SHT31;53663;42.676;23.238;2023-03-30T03:04:04;4.29;64.65
66752;SHT31;53663;42.676;23.238;2023-03-30T03:06:39;4.34;64.61
66752;SHT31;53663;42.676;23.238;2023-03-30T03:09:06;4.37;64.72
66752;SHT31;53663;42.676;23.238;2023-03-30T03:11:33;4.33;65.29
66752;SHT31;53663;42.676;23.238;2023-03-30T03:13:59;4.30;65.76
66752;SHT31;53663;42.676;23.238;2023-03-30T03:16:26;4.27;65.87
66752;SHT31;53663;42.676;23.238;2023-03-30T03:19:08;4.29;66.05
66752;SHT31;53663;42.676;23.238;2023-03-30T03:21:34;4.25;66.18
66752;SHT31;53663;42.676;23.238;2023-03-30T03:24:02;4.29;66.07
66752;SHT31;53663;42.676;23.238;2023-03-30T03:26:48;4.34;66.01
66752;SHT31;53663;42.676;23.238;2023-03-30T03:29:13;4.38;66.15
66752;SHT31;53663;42.676;23.238;2023-03-30T03:31:39;4.40;66.67
66752;SHT31;53663;42.676;23.238;2023-03-30T03:34:05;4.37;66.79
66752;SHT31;53663;42.676;23.238;2023-03-30T03:36:51;4.37;67.48
66752;SHT31;53663;42.676;23.238;2023-03-30T03:39:21;4.37;67.57
66752;SHT31;53663;42.676;23.238;2023-03-30T03:41:48;4.38;67.41
66752;SHT31;53663;42.676;23.238;2023-03-30T03:44:13;4.40;67.57
66752;SHT31;53663;42.676;23.238;2023-03-30T03:46:39;4.33;67.70
66752;SHT31;53663;42.676;23.238;2023-03-30T03:49:05;4.37;67.49
66752;SHT31;53663;42.676;23.238;2023-03-30T03:51:31;4.37;67.23
66752;SHT31;53663;42.676;23.238;2023-03-30T03:53:57;4.34;67.11
66752;SHT31;53663;42.676;23.238;2023-03-30T03:56:23;4.37;66.96
66752;SHT31;53663;42.676;23.238;2023-03-30T03:58:49;4.36;66.87
66752;SHT31;53663;42.676;23.238;2023-03-30T04:01:15;4.30;67.10
66752;SHT31;53663;42.676;23.238;2023-03-30T04:03:41;4.37;66.99
66752;SHT31;53663;42.676;23.238;2023-03-30T04:06:06;4.37;66.90
66752;SHT31;53663;42.676;23.238;2023-03-30T04:08:32;4.37;67.11
66752;SHT31;53663;42.676;23.238;2023-03-30T04:11:09;4.44;67.09
66752;SHT31;53663;42.676;23.238;2023-03-30T04:13:56;4.48;67.01
66752;SHT31;53663;42.676;23.238;2023-03-30T04:16:51;4.43;66.60
66752;SHT31;53663;42.676;23.238;2023-03-30T04:19:23;4.51;66.68
66752;SHT31;53663;42.676;23.238;2023-03-30T04:22:12;4.62;66.45
66752;SHT31;53663;42.676;23.238;2023-03-30T04:25:11;4.64;65.87
66752;SHT31;53663;42.676;23.238;2023-03-30T04:27:55;4.64;65.79
66752;SHT31;53663;42.676;23.238;2023-03-30T04:30:58;4.69;65.56
66752;SHT31;53663;42.676;23.238;2023-03-30T04:33:49;4.71;65.06
66752;SHT31;53663;42.676;23.238;2023-03-30T04:36:49;4.60;65.10
66752;SHT31;53663;42.676;23.238;2023-03-30T04:39:39;4.64;65.17
66752;SHT31;53663;42.676;23.238;2023-03-30T04:42:31;4.62;65.30
66752;SHT31;53663;42.676;23.238;2023-03-30T04:45:17;4.67;65.48
66752;SHT31;53663;42.676;23.238;2023-03-30T04:47:49;4.68;65.63
66752;SHT31;53663;42.676;23.238;2023-03-30T04:50:23;4.64;65.40
66752;SHT31;53663;42.676;23.238;2023-03-30T04:53:08;4.75;65.13
66752;SHT31;53663;42.676;23.238;2023-03-30T04:55:49;4.71;65.14
66752;SHT31;53663;42.676;23.238;2023-03-30T04:58:40;4.72;64.93
66752;SHT31;53663;42.676;23.238;2023-03-30T05:01:28;4.72;65.23
66752;SHT31;53663;42.676;23.238;2023-03-30T05:03:57;4.75;66.10
66752;SHT31;53663;42.676;23.238;2023-03-30T05:06:41;4.89;65.29
66752;SHT31;53663;42.676;23.238;2023-03-30T05:09:23;4.95;65.05
66752;SHT31;53663;42.676;23.238;2023-03-30T05:12:07;5.06;64.87
66752;SHT31;53663;42.676;23.238;2023-03-30T05:14:41;5.05;64.53
66752;SHT31;53663;42.676;23.238;2023-03-30T05:17:24;5.18;63.87
66752;SHT31;53663;42.676;23.238;2023-03-30T05:20:13;5.19;63.67
66752;SHT31;53663;42.676;23.238;2023-03-30T05:22:58;5.16;63.60
66752;SHT31;53663;42.676;23.238;2023-03-30T05:25:42;5.19;63.90
66752;SHT31;53663;42.676;23.238;2023-03-30T05:28:28;5.27;63.44
66752;SHT31;53663;42.676;23.238;2023-03-30T05:31:08;5.47;63.01
66752;SHT31;53663;42.676;23.238;2023-03-30T05:33:40;5.47;62.82
66752;SHT31;53663;42.676;23.238;2023-03-30T05:36:23;5.48;63.27
66752;SHT31;53663;42.676;23.238;2023-03-30T05:39:05;5.58;63.16
66752;SHT31;53663;42.676;23.238;2023-03-30T05:41:49;5.74;62.95
66752;SHT31;53663;42.676;23.238;2023-03-30T05:44:26;5.79;62.19
66752;SHT31;53663;42.676;23.238;2023-03-30T05:47:26;5.98;61.64
66752;SHT31;53663;42.676;23.238;2023-03-30T05:50:11;6.13;61.90
66752;SHT31;53663;42.676;23.238;2023-03-30T05:52:51;6.03;61.95
66752;SHT31;53663;42.676;23.238;2023-03-30T05:55:35;6.09;61.97
66752;SHT31;53663;42.676;23.238;2023-03-30T05:58:19;6.16;61.70
66752;SHT31;53663;42.676;23.238;2023-03-30T06:01:08;6.06;61.96
66752;SHT31;53663;42.676;23.238;2023-03-30T06:03:38;6.10;62.28
66752;SHT31;53663;42.676;23.238;2023-03-30T06:06:05;6.27;61.81
66752;SHT31;53663;42.676;23.238;2023-03-30T06:08:31;6.36;61.80
66752;SHT31;53663;42.676;23.238;2023-03-30T06:10:59;6.30;62.24
66752;SHT31;53663;42.676;23.238;2023-03-30T06:13:30;6.29;62.96
66752;SHT31;53663;42.676;23.238;2023-03-30T06:15:56;6.16;62.64
66752;SHT31;53663;42.676;23.238;2023-03-30T06:18:24;6.13;62.90
66752;SHT31;53663;42.676;23.238;2023-03-30T06:20:59;6.12;63.31
66752;SHT31;53663;42.676;23.238;2023-03-30T06:23:27;6.34;62.85
66752;SHT31;53663;42.676;23.238;2023-03-30T06:25:59;6.27;63.60
66752;SHT31;53663;42.676;23.238;2023-03-30T06:28:30;6.20;64.27
66752;SHT31;53663;42.676;23.238;2023-03-30T06:30:56;6.15;64.73
66752;SHT31;53663;42.676;23.238;2023-03-30T06:33:24;6.10;64.90
66752;SHT31;53663;42.676;23.238;2023-03-30T06:35:57;6.10;64.76
66752;SHT31;53663;42.676;23.238;2023-03-30T06:38:23;6.18;65.65
66752;SHT31;53663;42.676;23.238;2023-03-30T06:40:50;6.01;65.45
66752;SHT31;53663;42.676;23.238;2023-03-30T06:43:19;6.22;65.39
66752;SHT31;53663;42.676;23.238;2023-03-30T06:46:05;6.48;64.50
66752;SHT31;53663;42.676;23.238;2023-03-30T06:48:31;6.51;64.67
66752;SHT31;53663;42.676;23.238;2023-03-30T06:51:17;6.68;65.33
66752;SHT31;53663;42.676;23.238;2023-03-30T06:53:44;6.64;65.59
66752;SHT31;53663;42.676;23.238;2023-03-30T06:56:10;6.67;65.31
66752;SHT31;53663;42.676;23.238;2023-03-30T06:58:45;6.74;64.97
66752;SHT31;53663;42.676;23.238;2023-03-30T07:01:12;6.91;64.57
66752;SHT31;53663;42.676;23.238;2023-03-30T07:04:00;7.01;65.14
66752;SHT31;53663;42.676;23.238;2023-03-30T07:06:47;7.23;64.21
66752;SHT31;53663;42.676;23.238;2023-03-30T07:09:12;7.67;62.61
66752;SHT31;53663;42.676;23.238;2023-03-30T07:11:38;7.81;62.37
66752;SHT31;53663;42.676;23.238;2023-03-30T07:14:04;8.01;62.52
66752;SHT31;53663;42.676;23.238;2023-03-30T07:16:31;8.24;61.34
66752;SHT31;53663;42.676;23.238;2023-03-30T07:18:56;8.56;60.88
66752;SHT31;53663;42.676;23.238;2023-03-30T07:21:22;8.90;59.96
66752;SHT31;53663;42.676;23.238;2023-03-30T07:23:48;9.21;58.38
66752;SHT31;53663;42.676;23.238;2023-03-30T07:26:24;9.43;57.03
66752;SHT31;53663;42.676;23.238;2023-03-30T07:28:56;9.48;55.04
66752;SHT31;53663;42.676;23.238;2023-03-30T07:31:23;9.75;54.94
66752;SHT31;53663;42.676;23.238;2023-03-30T07:33:49;9.94;52.51
66752;SHT31;53663;42.676;23.238;2023-03-30T07:36:19;10.13;51.66
66752;SHT31;53663;42.676;23.238;2023-03-30T07:38:45;10.45;52.52
66752;SHT31;53663;42.676;23.238;2023-03-30T07:41:13;11.14;51.11
66752;SHT31;53663;42.676;23.238;2023-03-30T07:43:39;11.91;47.93
66752;SHT31;53663;42.676;23.238;2023-03-30T07:46:09;12.91;45.63
66752;SHT31;53663;42.676;23.238;2023-03-30T07:48:38;13.97;43.41
66752;SHT31;53663;42.676;23.238;2023-03-30T07:51:10;14.41;39.50
66752;SHT31;53663;42.676;23.238;2023-03-30T07:53:43;14.45;39.20
66752;SHT31;53663;42.676;23.238;2023-03-30T07:56:17;13.97;42.22
66752;SHT31;53663;42.676;23.238;2023-03-30T07:58:46;14.13;43.27
66752;SHT31;53663;42.676;23.238;2023-03-30T08:01:12;15.03;41.47
66752;SHT31;53663;42.676;23.238;2023-03-30T08:04:03;15.35;39.20
66752;SHT31;53663;42.676;23.238;2023-03-30T08:06:33;15.04;40.15
66752;SHT31;53663;42.676;23.238;2023-03-30T08:08:59;15.66;41.07
66752;SHT31;53663;42.676;23.238;2023-03-30T08:11:25;14.69;41.92
66752;SHT31;53663;42.676;23.238;2023-03-30T08:13:50;14.61;41.07
66752;SHT31;53663;42.676;23.238;2023-03-30T08:16:15;13.43;44.94
66752;SHT31;53663;42.676;23.238;2023-03-30T08:18:41;13.94;43.58
66752;SHT31;53663;42.676;23.238;2023-03-30T08:21:06;13.91;44.10
66752;SHT31;53663;42.676;23.238;2023-03-30T08:23:32;14.36;41.50
66752;SHT31;53663;42.676;23.238;2023-03-30T08:25:58;14.22;43.19
66752;SHT31;53663;42.676;23.238;2023-03-30T08:28:24;13.98;41.46
66752;SHT31;53663;42.676;23.238;2023-03-30T08:30:50;13.86;43.23
66752;SHT31;53663;42.676;23.238;2023-03-30T08:33:16;13.62;41.74
66752;SHT31;53663;42.676;23.238;2023-03-30T08:35:45;14.20;44.05
66752;SHT31;53663;42.676;23.238;2023-03-30T08:38:12;14.97;38.29
66752;SHT31;53663;42.676;23.238;2023-03-30T08:40:46;15.52;35.87
66752;SHT31;53663;42.676;23.238;2023-03-30T08:45:41;15.41;35.62
66752;SHT31;53663;42.676;23.238;2023-03-30T08:48:17;15.08;35.16
66752;SHT31;53663;42.676;23.238;2023-03-30T08:50:59;14.53;36.81
66752;SHT31;53663;42.676;23.238;2023-03-30T08:53:28;14.22;38.11
66752;SHT31;53663;42.676;23.238;2023-03-30T08:56:06;14.10;37.38
66752;SHT31;53663;42.676;23.238;2023-03-30T08:58:48;14.13;37.99
66752;SHT31;53663;42.676;23.238;2023-03-30T09:01:29;14.05;37.47
66752;SHT31;53663;42.676;23.238;2023-03-30T09:06:57;15.08;35.93
66752;SHT31;53663;42.676;23.238;2023-03-30T09:09:27;15.08;34.87
66752;SHT31;53663;42.676;23.238;2023-03-30T09:12:04;14.96;34.96
66752;SHT31;53663;42.676;23.238;2023-03-30T09:14:37;15.24;35.47
66752;SHT31;53663;42.676;23.238;2023-03-30T09:17:10;15.50;35.23
66752;SHT31;53663;42.676;23.238;2023-03-30T09:19:48;15.92;34.43
66752;SHT31;53663;42.676;23.238;2023-03-30T09:22:17;16.03;35.34
66752;SHT31;53663;42.676;23.238;2023-03-30T09:24:43;16.08;33.69
66752;SHT31;53663;42.676;23.238;2023-03-30T09:27:41;15.98;33.93
66752;SHT31;53663;42.676;23.238;2023-03-30T09:30:19;15.82;34.78
66752;SHT31;53663;42.676;23.238;2023-03-30T09:33:01;15.93;35.02
66752;SHT31;53663;42.676;23.238;2023-03-30T09:35:40;15.89;34.41
66752;SHT31;53663;42.676;23.238;2023-03-30T09:38:10;16.17;34.59
66752;SHT31;53663;42.676;23.238;2023-03-30T09:43:31;16.85;33.57
66752;SHT31;53663;42.676;23.238;2023-03-30T09:46:05;17.43;32.35
66752;SHT31;53663;42.676;23.238;2023-03-30T09:48:43;17.49;32.01
66752;SHT31;53663;42.676;23.238;2023-03-30T09:51:25;17.44;31.95
66752;SHT31;53663;42.676;23.238;2023-03-30T09:54:01;17.56;32.95
66752;SHT31;53663;42.676;23.238;2023-03-30T09:56:37;17.74;30.91
66752;SHT31;53663;42.676;23.238;2023-03-30T09:59:31;17.69;32.49
66752;SHT31;53663;42.676;23.238;2023-03-30T10:07:39;17.35;32.61
66752;SHT31;53663;42.676;23.238;2023-03-30T10:12:49;17.22;33.53
66752;SHT31;53663;42.676;23.238;2023-03-30T10:15:17;17.33;33.12
66752;SHT31;53663;42.676;23.238;2023-03-30T10:17:45;17.73;33.68
66752;SHT31;53663;42.676;23.238;2023-03-30T10:22:57;17.16;33.44
66752;SHT31;53663;42.676;23.238;2023-03-30T10:25:26;16.82;33.27
66752;SHT31;53663;42.676;23.238;2023-03-30T10:27:55;16.60;33.43
66752;SHT31;53663;42.676;23.238;2023-03-30T10:30:23;16.26;33.66
66752;SHT31;53663;42.676;23.238;2023-03-30T10:32:51;15.79;36.18
66752;SHT31;53663;42.676;23.238;2023-03-30T10:35:21;15.73;35.24
66752;SHT31;53663;42.676;23.238;2023-03-30T10:37:50;15.95;36.65
66752;SHT31;53663;42.676;23.238;2023-03-30T10:40:20;16.38;35.11
66752;SHT31;53663;42.676;23.238;2023-03-30T10:42:49;16.96;34.42
66752;SHT31;53663;42.676;23.238;2023-03-30T10:45:17;17.33;34.18
66752;SHT31;53663;42.676;23.238;2023-03-30T10:56:26;17.69;31.99
66752;SHT31;53663;42.676;23.238;2023-03-30T11:01:58;16.50;34.28
66752;SHT31;53663;42.676;23.238;2023-03-30T11:04:34;17.25;34.19
66752;SHT31;53663;42.676;23.238;2023-03-30T11:07:04;17.63;32.12
66752;SHT31;53663;42.676;23.238;2023-03-30T11:09:37;17.84;32.83
66752;SHT31;53663;42.676;23.238;2023-03-30T11:12:06;17.97;32.20
66752;SHT31;53663;42.676;23.238;2023-03-30T11:17:22;18.32;31.23
66752;SHT31;53663;42.676;23.238;2023-03-30T11:19:55;17.94;30.82
66752;SHT31;53663;42.676;23.238;2023-03-30T11:22:47;17.91;32.71
66752;SHT31;53663;42.676;23.238;2023-03-30T11:25:24;17.90;31.28
66752;SHT31;53663;42.676;23.238;2023-03-30T11:27:55;17.59;31.74
66752;SHT31;53663;42.676;23.238;2023-03-30T11:30:27;17.60;31.96
66752;SHT31;53663;42.676;23.238;2023-03-30T11:35:43;17.67;32.14
66752;SHT31;53663;42.676;23.238;2023-03-30T11:43:18;17.27;33.24
66752;SHT31;53663;42.676;23.238;2023-03-30T11:46:05;17.27;32.02
66752;SHT31;53663;42.676;23.238;2023-03-30T11:48:42;17.43;32.02
66752;SHT31;53663;42.676;23.238;2023-03-30T11:56:52;16.48;32.00
66752;SHT31;53663;42.676;23.238;2023-03-30T11:59:31;16.03;34.04
66752;SHT31;53663;42.676;23.238;2023-03-30T12:05:06;16.02;33.33
66752;SHT31;53663;42.676;23.238;2023-03-30T12:07:42;15.73;33.50
66752;SHT31;53663;42.676;23.238;2023-03-30T12:10:27;15.81;35.43
66752;SHT31;53663;42.676;23.238;2023-03-30T12:12:57;15.11;34.60
66752;SHT31;53663;42.676;23.238;2023-03-30T12:18:32;14.96;37.35
66752;SHT31;53663;42.676;23.238;2023-03-30T12:28:57;16.21;35.91
66752;SHT31;53663;42.676;23.238;2023-03-30T12:34:21;15.44;36.26
66752;SHT31;53663;42.676;23.238;2023-03-30T12:36:48;15.47;35.50
66752;SHT31;53663;42.676;23.238;2023-03-30T12:39:25;15.44;37.54
66752;SHT31;53663;42.676;23.238;2023-03-30T12:42:22;15.55;35.37
66752;SHT31;53663;42.676;23.238;2023-03-30T12:45:29;15.44;35.80
66752;SHT31;53663;42.676;23.238;2023-03-30T12:58:45;15.63;34.22
66752;SHT31;53663;42.676;23.238;2023-03-30T13:01:21;15.38;35.38
66752;SHT31;53663;42.676;23.238;2023-03-30T13:03:51;15.54;35.61
66752;SHT31;53663;42.676;23.238;2023-03-30T13:30:00;14.42;36.56
66752;SHT31;53663;42.676;23.238;2023-03-30T13:37:55;14.75;36.44
66752;SHT31;53663;42.676;23.238;2023-03-30T13:40:27;14.96;36.40
66752;SHT31;53663;42.676;23.238;2023-03-30T13:45:46;14.93;37.00
66752;SHT31;53663;42.676;23.238;2023-03-30T13:48:34;15.13;36.46
66752;SHT31;53663;42.676;23.238;2023-03-30T13:51:11;15.08;36.12
66752;SHT31;53663;42.676;23.238;2023-03-30T13:53:43;15.16;36.25
66752;SHT31;53663;42.676;23.238;2023-03-30T13:56:12;15.44;37.11
66752;SHT31;53663;42.676;23.238;2023-03-30T13:58:39;15.65;35.04
66752;SHT31;53663;42.676;23.238;2023-03-30T14:01:09;15.71;34.93
66752;SHT31;53663;42.676;23.238;2023-03-30T14:03:41;15.63;34.65
66752;SHT31;53663;42.676;23.238;2023-03-30T14:06:21;15.45;35.01
66752;SHT31;53663;42.676;23.238;2023-03-30T14:08:49;15.51;36.35
66752;SHT31;53663;42.676;23.238;2023-03-30T14:13:51;15.38;35.03
66752;SHT31;53663;42.676;23.238;2023-03-30T14:16:21;15.69;35.80
66752;SHT31;53663;42.676;23.238;2023-03-30T14:18:47;15.82;35.29
66752;SHT31;53663;42.676;23.238;2023-03-30T14:21:17;15.89;35.01
66752;SHT31;53663;42.676;23.238;2023-03-30T14:23:47;15.77;34.61
66752;SHT31;53663;42.676;23.238;2023-03-30T14:26:15;15.63;34.32
66752;SHT31;53663;42.676;23.238;2023-03-30T14:28:40;15.72;34.02
66752;SHT31;53663;42.676;23.238;2023-03-30T14:31:17;15.58;34.64
66752;SHT31;53663;42.676;23.238;2023-03-30T14:33:44;15.41;35.82
66752;SHT31;53663;42.676;23.238;2023-03-30T14:36:13;15.19;35.85
66752;SHT31;53663;42.676;23.238;2023-03-30T14:38:44;15.08;36.29
66752;SHT31;53663;42.676;23.238;2023-03-30T14:41:19;15.17;35.12
66752;SHT31;53663;42.676;23.238;2023-03-30T14:44:05;15.13;35.53
66752;SHT31;53663;42.676;23.238;2023-03-30T14:46:42;15.40;36.94
66752;SHT31;53663;42.676;23.238;2023-03-30T14:49:31;15.28;35.81
66752;SHT31;53663;42.676;23.238;2023-03-30T14:52:09;15.20;34.92
66752;SHT31;53663;42.676;23.238;2023-03-30T14:54:38;15.16;35.69
66752;SHT31;53663;42.676;23.238;2023-03-30T14:57:05;15.08;36.63
66752;SHT31;53663;42.676;23.238;2023-03-30T14:59:34;15.07;36.34
66752;SHT31;53663;42.676;23.238;2023-03-30T15:02:02;15.04;36.80
66752;SHT31;53663;42.676;23.238;2023-03-30T15:04:33;14.92;35.93
66752;SHT31;53663;42.676;23.238;2023-03-30T15:06:59;14.97;36.02
66752;SHT31;53663;42.676;23.238;2023-03-30T15:09:25;14.93;36.68
66752;SHT31;53663;42.676;23.238;2023-03-30T15:12:01;14.96;37.08
66752;SHT31;53663;42.676;23.238;2023-03-30T15:14:32;14.90;35.24
66752;SHT31;53663;42.676;23.238;2023-03-30T15:16:59;14.65;35.83
66752;SHT31;53663;42.676;23.238;2023-03-30T15:19:35;14.59;35.01
66752;SHT31;53663;42.676;23.238;2023-03-30T15:22:05;14.42;35.28
66752;SHT31;53663;42.676;23.238;2023-03-30T15:24:35;14.36;36.05
66752;SHT31;53663;42.676;23.238;2023-03-30T15:27:04;14.31;36.35
66752;SHT31;53663;42.676;23.238;2023-03-30T15:29:31;14.26;36.68
66752;SHT31;53663;42.676;23.238;2023-03-30T15:35:05;14.15;35.72
66752;SHT31;53663;42.676;23.238;2023-03-30T15:37:33;14.11;36.63
66752;SHT31;53663;42.676;23.238;2023-03-30T15:39:59;14.01;38.10
66752;SHT31;53663;42.676;23.238;2023-03-30T15:42:29;13.93;37.81
66752;SHT31;53663;42.676;23.238;2023-03-30T15:45:21;13.65;37.01
66752;SHT31;53663;42.676;23.238;2023-03-30T15:47:46;13.53;37.25
66752;SHT31;53663;42.676;23.238;2023-03-30T15:50:13;13.59;38.00
66752;SHT31;53663;42.676;23.238;2023-03-30T15:52:42;13.57;37.21
66752;SHT31;53663;42.676;23.238;2023-03-30T15:55:25;13.49;37.92
66752;SHT31;53663;42.676;23.238;2023-03-30T15:57:52;13.45;37.87
66752;SHT31;53663;42.676;23.238;2023-03-30T16:00:20;13.39;38.12
66752;SHT31;53663;42.676;23.238;2023-03-30T16:02:51;13.32;38.71
66752;SHT31;53663;42.676;23.238;2023-03-30T16:05:26;13.32;38.72
66752;SHT31;53663;42.676;23.238;2023-03-30T16:07:52;13.32;39.13
66752;SHT31;53663;42.676;23.238;2023-03-30T16:10:21;13.22;38.84
66752;SHT31;53663;42.676;23.238;2023-03-30T16:12:49;13.15;39.74
66752;SHT31;53663;42.676;23.238;2023-03-30T16:15:21;13.15;40.08
66752;SHT31;53663;42.676;23.238;2023-03-30T16:17:47;13.15;40.77
66752;SHT31;53663;42.676;23.238;2023-03-30T16:20:23;13.08;41.19
66752;SHT31;53663;42.676;23.238;2023-03-30T16:22:50;13.08;41.16
66752;SHT31;53663;42.676;23.238;2023-03-30T16:25:17;12.97;40.58
66752;SHT31;53663;42.676;23.238;2023-03-30T16:27:43;12.92;40.25
66752;SHT31;53663;42.676;23.238;2023-03-30T16:30:20;12.88;40.24
66752;SHT31;53663;42.676;23.238;2023-03-30T16:32:47;12.84;40.43
66752;SHT31;53663;42.676;23.238;2023-03-30T16:35:13;12.85;40.59
66752;SHT31;53663;42.676;23.238;2023-03-30T16:37:39;12.90;41.42
66752;SHT31;53663;42.676;23.238;2023-03-30T16:43:16;12.84;41.03
66752;SHT31;53663;42.676;23.238;2023-03-30T16:45:41;12.81;40.82
66752;SHT31;53663;42.676;23.238;2023-03-30T16:48:11;12.74;41.29
66752;SHT31;53663;42.676;23.238;2023-03-30T16:50:39;12.70;41.11
66752;SHT31;53663;42.676;23.238;2023-03-30T16:53:06;12.70;41.11
66752;SHT31;53663;42.676;23.238;2023-03-30T16:55:33;12.70;41.16
66752;SHT31;53663;42.676;23.238;2023-03-30T16:57:59;12.76;41.21
66752;SHT31;53663;42.676;23.238;2023-03-30T17:00:30;12.78;41.41
66752;SHT31;53663;42.676;23.238;2023-03-30T17:02:56;12.71;41.65
66752;SHT31;53663;42.676;23.238;2023-03-30T17:05:22;12.80;41.68
66752;SHT31;53663;42.676;23.238;2023-03-30T17:07:48;12.87;41.91
66752;SHT31;53663;42.676;23.238;2023-03-30T17:10:26;12.84;41.65
66752;SHT31;53663;42.676;23.238;2023-03-30T17:12:53;12.76;41.52
66752;SHT31;53663;42.676;23.238;2023-03-30T17:15:20;12.76;41.14
66752;SHT31;53663;42.676;23.238;2023-03-30T17:17:46;12.71;40.99
66752;SHT31;53663;42.676;23.238;2023-03-30T17:20:22;12.61;40.98
66752;SHT31;53663;42.676;23.238;2023-03-30T17:22:48;12.63;40.73
66752;SHT31;53663;42.676;23.238;2023-03-30T17:25:15;12.57;40.59
66752;SHT31;53663;42.676;23.238;2023-03-30T17:27:41;12.60;40.62
66752;SHT31;53663;42.676;23.238;2023-03-30T17:32:42;12.53;40.88
66752;SHT31;53663;42.676;23.238;2023-03-30T17:35:08;12.60;40.79
66752;SHT31;53663;42.676;23.238;2023-03-30T17:37:34;12.57;41.31
66752;SHT31;53663;42.676;23.238;2023-03-30T17:40:00;12.44;41.82
66752;SHT31;53663;42.676;23.238;2023-03-30T17:42:26;12.44;41.89
66752;SHT31;53663;42.676;23.238;2023-03-30T17:44:53;12.47;41.79
66752;SHT31;53663;42.676;23.238;2023-03-30T17:47:18;12.47;41.52
66752;SHT31;53663;42.676;23.238;2023-03-30T17:49:44;12.37;42.01
66752;SHT31;53663;42.676;23.238;2023-03-30T17:52:10;12.33;41.98
66752;SHT31;53663;42.676;23.238;2023-03-30T17:54:36;12.30;41.87
66752;SHT31;53663;42.676;23.238;2023-03-30T17:57:02;12.23;42.01
66752;SHT31;53663;42.676;23.238;2023-03-30T17:59:28;12.36;41.74
66752;SHT31;53663;42.676;23.238;2023-03-30T18:01:53;12.30;42.31
66752;SHT31;53663;42.676;23.238;2023-03-30T18:04:19;12.18;41.90
66752;SHT31;53663;42.676;23.238;2023-03-30T18:06:44;12.15;42.18
66752;SHT31;53663;42.676;23.238;2023-03-30T18:09:15;12.19;42.02
66752;SHT31;53663;42.676;23.238;2023-03-30T18:11:41;12.19;42.36
66752;SHT31;53663;42.676;23.238;2023-03-30T18:14:07;12.18;42.01
66752;SHT31;53663;42.676;23.238;2023-03-30T18:16:36;12.20;41.94
66752;SHT31;53663;42.676;23.238;2023-03-30T18:19:03;12.15;41.79
66752;SHT31;53663;42.676;23.238;2023-03-30T18:21:28;12.12;41.98